Pontiac, South Carolina
Current Conditions -  °F | °C
As of 7:35 AM on Monday 24 Nov 2014 (Local Time) from KCDN Reporting Station
Overcast Overcast  
Wind Chill: 64°   Ceiling: 1700
Heat Index: 64°   Visibility: 9mi
Dew Point: 61°   Wind: 0mph
Humidity: 88%   Direction: NA
Pressure: 29.84"   Gusts: NA
Location:  34.1767°N, 80.8184°W
Report Text: KCDN 241235Z AUTO 00000KT 9SM OVC017 18/16 A2984 RMK AO2 TSNO
Loading
Personal Weather Stations






























Interactive Weather Map New forecast layout! Learn more

10-Day Weather Forecast

Advertisements
Track Severe Weather on mobile